Time;durP1;ratioP1;P1;durP2;ratioP2;P2;SDS_P1;SDS_P2;PMS_P1;PMS_P2;Temp;Humidity;BMP_temperature;BMP_pressure;BME280_temperature;BME280_humidity;BME280_pressure;Samples;Min_cycle;Max_cycle;Signal;HPM_P1;HPM_P2
2023/04/03 00:01:28;;;;;;;3.90;3.40;;;;;;;2.02;80.76;97332.16;108667;1252;100452;-72
2023/04/03 00:03:56;;;;;;;4.30;3.70;;;;;;;2.01;80.75;97332.72;108852;1251;100093;-72
2023/04/03 00:06:26;;;;;;;3.60;3.20;;;;;;;2.00;80.78;97332.17;108953;1251;95529;-72
2023/04/03 00:08:54;;;;;;;3.50;3.20;;;;;;;1.99;80.75;97329.91;108935;1251;96045;-73
2023/04/03 00:11:22;;;;;;;3.80;3.20;;;;;;;1.98;80.78;97330.40;108954;1250;103930;-72
2023/04/03 00:13:50;;;;;;;5.40;3.50;;;;;;;1.96;80.76;97330.59;109000;1251;101453;-72
2023/04/03 00:16:18;;;;;;;3.80;3.30;;;;;;;1.94;80.73;97331.85;108882;1251;99479;-73
2023/04/03 00:18:46;;;;;;;4.20;3.60;;;;;;;1.93;80.79;97330.82;108906;1251;95584;-73
2023/04/03 00:21:15;;;;;;;3.40;3.10;;;;;;;1.93;80.78;97333.13;108940;1251;96027;-72
2023/04/03 00:23:43;;;;;;;3.50;3.20;;;;;;;1.92;80.83;97332.42;108942;1250;103586;-72
2023/04/03 00:26:12;;;;;;;4.20;3.80;;;;;;;1.92;80.81;97330.89;108945;1251;109767;-73
2023/04/03 00:28:40;;;;;;;4.10;3.70;;;;;;;1.90;80.74;97329.34;108886;1251;100058;-71
2023/04/03 00:31:08;;;;;;;3.90;3.30;;;;;;;1.87;80.73;97329.27;108901;1251;95581;-71
2023/04/03 00:33:36;;;;;;;4.10;3.80;;;;;;;1.83;80.74;97328.55;108911;1251;96000;-71
2023/04/03 00:36:11;;;;;;;4.50;3.70;;;;;;;1.81;80.83;97331.25;108925;1250;103601;-72
2023/04/03 00:38:41;;;;;;;2.40;2.20;;;;;;;1.78;80.85;97334.08;108717;1250;101469;-73
2023/04/03 00:41:09;;;;;;;3.50;3.10;;;;;;;1.72;80.74;97334.33;108904;1250;99723;-74
2023/04/03 00:43:37;;;;;;;4.10;3.00;;;;;;;1.66;80.72;97332.11;108929;1251;95844;-72
2023/04/03 00:46:05;;;;;;;3.60;2.50;;;;;;;1.61;80.69;97334.30;108908;1251;95978;-72
2023/04/03 00:48:39;;;;;;;3.20;2.90;;;;;;;1.49;80.69;97340.64;108926;1251;103640;-72
2023/04/03 00:51:11;;;;;;;3.50;2.90;;;;;;;1.45;80.96;97342.73;108943;1250;101491;-72
2023/04/03 00:53:53;;;;;;;3.70;3.20;;;;;;;1.45;81.09;97345.59;108684;1251;99888;-72
2023/04/03 00:56:25;;;;;;;2.90;2.60;;;;;;;1.47;81.20;97345.23;108810;1251;95779;-72
2023/04/03 00:58:59;;;;;;;3.20;2.80;;;;;;;1.50;81.22;97341.95;108941;1251;95555;-72
2023/04/03 01:01:30;;;;;;;2.50;2.20;;;;;;;1.50;81.18;97339.15;108939;1251;103595;-72
2023/04/03 01:04:00;;;;;;;3.10;2.50;;;;;;;1.50;81.11;97337.91;108915;1251;101775;-72
2023/04/03 01:06:33;;;;;;;1.90;1.80;;;;;;;1.46;81.10;97337.76;108944;1251;99943;-72
2023/04/03 01:09:02;;;;;;;2.20;2.00;;;;;;;1.41;81.03;97342.49;108679;1251;96014;-72
2023/04/03 01:11:30;;;;;;;3.10;2.30;;;;;;;1.34;81.01;97346.38;108863;1250;96465;-73
2023/04/03 01:13:58;;;;;;;3.10;2.10;;;;;;;1.33;81.03;97346.17;108931;1251;103717;-72
2023/04/03 01:16:27;;;;;;;2.60;2.40;;;;;;;1.32;81.05;97348.02;108961;1251;101277;-74
2023/04/03 01:18:55;;;;;;;2.50;2.10;;;;;;;1.32;81.11;97349.77;108893;1251;99894;-72
2023/04/03 01:21:45;;;;;;;1.80;1.70;;;;;;;1.32;81.08;97351.90;108876;1250;95783;-73
2023/04/03 01:24:32;;;;;;;3.80;2.40;;;;;;;1.31;81.06;97355.75;108869;1251;96002;-73
2023/04/03 01:27:02;;;;;;;3.30;2.50;;;;;;;1.31;81.11;97356.33;108950;1250;103705;-71
2023/04/03 01:29:30;;;;;;;2.70;2.20;;;;;;;1.31;81.16;97362.67;108896;1250;101419;-73
2023/04/03 01:32:01;;;;;;;2.50;2.20;;;;;;;1.33;81.14;97365.80;108887;1251;100312;-72
2023/04/03 01:34:30;;;;;;;2.80;2.20;;;;;;;1.34;81.14;97360.27;108918;1251;95554;-72
2023/04/03 01:39:32;;;;;;;2.20;2.00;;;;;;;1.28;81.06;97365.35;102127;1293;636520;-73
2023/04/03 01:42:00;;;;;;;2.10;1.90;;;;;;;1.23;81.09;97367.61;104512;1278;97202;-72
2023/04/03 01:44:28;;;;;;;2.50;2.30;;;;;;;1.19;81.07;97368.55;104512;1268;96818;-69
2023/04/03 01:46:56;;;;;;;3.20;2.30;;;;;;;1.19;81.14;97371.08;104547;1265;100044;-73
2023/04/03 01:49:24;;;;;;;3.00;2.30;;;;;;;1.17;81.18;97369.23;104454;1263;101911;-70
2023/04/03 01:51:52;;;;;;;2.80;2.50;;;;;;;1.18;81.27;97367.94;104568;1267;100633;-70
2023/04/03 01:54:21;;;;;;;3.00;2.40;;;;;;;1.17;81.32;97374.45;104727;1263;214561;-69
2023/04/03 01:56:49;;;;;;;2.90;2.40;;;;;;;1.14;81.26;97372.59;104902;1282;96699;-70
2023/04/03 01:59:17;;;;;;;2.90;2.30;;;;;;;1.11;81.32;97373.39;105043;1259;100063;-73
2023/04/03 02:01:46;;;;;;;2.70;2.20;;;;;;;1.08;81.34;97373.30;104829;1261;101974;-71
2023/04/03 02:04:14;;;;;;;1.80;1.70;;;;;;;1.02;81.36;97370.89;104812;1260;100423;-73
2023/04/03 02:06:42;;;;;;;2.20;1.80;;;;;;;0.99;81.30;97375.05;104522;1265;95953;-71
2023/04/03 02:09:10;;;;;;;1.50;1.40;;;;;;;0.97;81.50;97380.67;104494;1261;96212;-71
2023/04/03 02:11:38;;;;;;;2.80;1.70;;;;;;;0.91;81.51;97379.64;104793;1259;101287;-72
2023/04/03 02:14:06;;;;;;;4.00;2.00;;;;;;;0.87;81.72;97380.55;104828;1260;101857;-71
2023/04/03 02:16:34;;;;;;;2.50;2.10;;;;;;;0.86;81.77;97379.83;104954;1259;98731;-71
2023/04/03 02:19:02;;;;;;;2.10;1.90;;;;;;;0.84;81.83;97384.98;104549;1264;96809;-72
2023/04/03 02:21:30;;;;;;;2.30;2.00;;;;;;;0.80;81.90;97385.57;104857;1256;96812;-69
2023/04/03 02:23:58;;;;;;;2.60;1.30;;;;;;;0.76;81.90;97387.17;104576;1259;100012;-71
2023/04/03 02:26:27;;;;;;;1.70;1.50;;;;;;;0.74;81.99;97386.68;104850;1260;102087;-73
2023/04/03 02:28:55;;;;;;;2.50;1.80;;;;;;;0.71;81.93;97389.97;104739;1260;100444;-73
2023/04/03 02:31:23;;;;;;;2.10;1.90;;;;;;;0.68;82.05;97389.01;104828;1260;96831;-71
2023/04/03 02:33:51;;;;;;;3.70;1.60;;;;;;;0.66;82.11;97392.27;104573;1256;96790;-73
2023/04/03 02:36:20;;;;;;;1.50;1.40;;;;;;;0.66;82.15;97393.77;104784;1270;101266;-71
2023/04/03 02:38:48;;;;;;;1.50;1.40;;;;;;;0.66;82.09;97391.17;104794;1259;102068;-71
2023/04/03 02:41:16;;;;;;;2.00;1.80;;;;;;;0.65;82.08;97392.63;104959;1259;100649;-71
2023/04/03 02:43:45;;;;;;;1.80;1.60;;;;;;;0.66;82.16;97393.27;104990;1272;96047;-72
2023/04/03 02:46:14;;;;;;;3.30;2.00;;;;;;;0.62;82.13;97395.23;105066;1261;96863;-72
2023/04/03 02:48:43;;;;;;;2.90;1.80;;;;;;;0.62;82.16;97391.33;104790;1263;99697;-72
2023/04/03 02:51:11;;;;;;;2.20;1.70;;;;;;;0.66;82.18;97390.47;104832;1259;102103;-68
2023/04/03 02:53:39;;;;;;;2.20;1.60;;;;;;;0.68;82.18;97395.25;104921;1259;99955;-69
2023/04/03 02:56:07;;;;;;;3.10;1.80;;;;;;;0.69;82.11;97395.33;105046;1257;96009;-69
2023/04/03 02:58:35;;;;;;;2.00;1.60;;;;;;;0.70;82.04;97401.22;105083;1259;96757;-70
2023/04/03 03:01:04;;;;;;;2.80;2.00;;;;;;;0.70;82.05;97399.84;104996;1259;101645;-70
2023/04/03 03:03:32;;;;;;;1.90;1.70;;;;;;;0.70;82.07;97397.89;105037;1257;102500;-70
2023/04/03 03:06:09;;;;;;;3.20;1.90;;;;;;;0.69;82.00;97399.68;104547;1262;101457;-71
2023/04/03 03:08:39;;;;;;;2.40;1.90;;;;;;;0.68;81.88;97405.65;104900;1272;95822;-70
2023/04/03 03:11:07;;;;;;;1.50;1.40;;;;;;;0.65;81.82;97409.69;104687;1262;96713;-70
2023/04/03 03:13:36;;;;;;;1.50;1.40;;;;;;;0.55;81.94;97408.32;104798;1256;101243;-69
2023/04/03 03:16:05;;;;;;;1.60;1.50;;;;;;;0.50;82.06;97408.54;104983;1261;102671;-71
2023/04/03 03:18:33;;;;;;;2.00;1.80;;;;;;;0.46;82.06;97412.23;104866;1278;101457;-69
2023/04/03 03:21:03;;;;;;;2.80;1.60;;;;;;;0.44;82.08;97416.20;104975;1257;95867;-70
2023/04/03 03:23:33;;;;;;;2.70;2.00;;;;;;;0.41;82.08;97414.91;104862;1259;97193;-70
2023/04/03 03:26:06;;;;;;;2.80;2.20;;;;;;;0.36;82.14;97411.11;104816;1259;101093;-70
2023/04/03 03:28:36;;;;;;;3.00;2.30;;;;;;;0.34;82.19;97407.05;104597;1264;100516;-70
2023/04/03 03:31:05;;;;;;;3.10;2.80;;;;;;;0.36;82.37;97411.75;104824;1257;100381;-71
2023/04/03 03:33:57;;;;;;;2.40;2.20;;;;;;;0.39;82.42;97409.55;102068;1292;635995;-69
2023/04/03 03:36:25;;;;;;;3.20;2.90;;;;;;;0.40;82.51;97412.17;104383;1272;95881;-70
2023/04/03 03:38:53;;;;;;;2.80;2.50;;;;;;;0.43;82.45;97413.77;104403;1270;95853;-71
2023/04/03 03:41:21;;;;;;;3.80;2.70;;;;;;;0.45;82.40;97413.62;104301;1270;98597;-70
2023/04/03 03:43:49;;;;;;;4.40;3.10;;;;;;;0.47;82.38;97413.61;104135;1271;110486;-69
2023/04/03 03:46:17;;;;;;;3.00;2.30;;;;;;;0.48;82.28;97418.42;104008;1267;107873;-71
2023/04/03 03:48:45;;;;;;;3.50;2.60;;;;;;;0.40;81.98;97423.26;104380;1267;193521;-70
2023/04/03 03:51:14;;;;;;;4.30;3.10;;;;;;;0.32;82.06;97423.52;104147;1269;96729;-70
2023/04/03 03:53:42;;;;;;;5.60;3.40;;;;;;;0.33;82.26;97420.62;104383;1269;99920;-70
2023/04/03 03:56:10;;;;;;;4.60;3.40;;;;;;;0.35;82.21;97423.20;104575;1266;101434;-69
2023/04/03 03:58:38;;;;;;;3.10;2.60;;;;;;;0.38;82.17;97421.38;104543;1267;99954;-70
2023/04/03 04:01:07;;;;;;;4.00;2.70;;;;;;;0.40;82.19;97421.70;104479;1268;96116;-70
2023/04/03 04:03:36;;;;;;;3.00;2.20;;;;;;;0.43;82.22;97426.33;104323;1270;96041;-69
2023/04/03 04:06:05;;;;;;;5.80;3.70;;;;;;;0.46;82.22;97426.84;104648;1263;101479;-70
2023/04/03 04:08:33;;;;;;;11.20;6.50;;;;;;;0.48;82.22;97425.20;104557;1263;102067;-69
2023/04/03 04:11:01;;;;;;;11.00;6.30;;;;;;;0.49;82.19;97425.98;104492;1267;108733;-69
2023/04/03 04:13:29;;;;;;;3.90;3.20;;;;;;;0.48;82.21;97422.02;104283;1267;95912;-70
2023/04/03 04:15:57;;;;;;;8.80;5.40;;;;;;;0.39;81.96;97426.69;104491;1263;96143;-70
2023/04/03 04:18:25;;;;;;;6.00;3.90;;;;;;;0.30;81.93;97432.33;104311;1266;101430;-70
2023/04/03 04:20:53;;;;;;;2.70;2.00;;;;;;;0.29;82.15;97437.89;104421;1266;101998;-70
2023/04/03 04:23:21;;;;;;;2.60;2.00;;;;;;;0.31;82.17;97437.95;104457;1283;100696;-69
2023/04/03 04:25:51;;;;;;;2.70;2.10;;;;;;;0.28;82.18;97438.06;104451;1264;96792;-69
2023/04/03 04:28:19;;;;;;;3.60;2.70;;;;;;;0.24;82.21;97444.95;104597;1265;97062;-71
2023/04/03 04:30:47;;;;;;;4.70;4.30;;;;;;;0.24;82.27;97446.98;104477;1259;101218;-70
2023/04/03 04:33:16;;;;;;;4.20;2.60;;;;;;;0.23;82.20;97447.04;104582;1263;101804;-70
2023/04/03 04:35:44;;;;;;;3.70;3.30;;;;;;;0.21;82.26;97449.30;104597;1266;100625;-70
2023/04/03 04:38:12;;;;;;;6.10;5.20;;;;;;;0.20;82.22;97449.11;104632;1264;95868;-70
2023/04/03 04:40:41;;;;;;;5.70;3.60;;;;;;;0.22;82.31;97451.38;104555;1267;95865;-71
2023/04/03 04:43:10;;;;;;;2.60;2.40;;;;;;;0.22;82.31;97456.48;104379;1267;110238;-72
2023/04/03 04:45:38;;;;;;;6.20;4.60;;;;;;;0.19;82.30;97453.92;104443;1283;101646;-71
2023/04/03 04:48:06;;;;;;;5.70;3.30;;;;;;;0.20;82.28;97457.39;104467;1264;100282;-70
2023/04/03 04:50:34;;;;;;;3.20;2.70;;;;;;;0.21;82.23;97456.96;104396;1261;96778;-70
2023/04/03 04:53:04;;;;;;;4.70;3.50;;;;;;;0.21;82.24;97461.55;104509;1260;95935;-71
2023/04/03 04:55:32;;;;;;;5.70;3.80;;;;;;;0.19;82.25;97466.16;104421;1267;101152;-70
2023/04/03 04:58:00;;;;;;;4.00;3.40;;;;;;;0.21;82.18;97464.27;104524;1264;101953;-70
2023/04/03 05:00:28;;;;;;;3.90;2.80;;;;;;;0.22;82.09;97464.34;104470;1265;100392;-73
2023/04/03 05:02:56;;;;;;;5.80;3.90;;;;;;;0.20;82.16;97469.94;104350;1267;96003;-70
2023/04/03 05:05:24;;;;;;;2.30;2.00;;;;;;;0.23;82.17;97467.21;104352;1267;97145;-71
2023/04/03 05:07:52;;;;;;;2.70;2.50;;;;;;;0.20;82.14;97463.98;104438;1265;101310;-70
2023/04/03 05:10:20;;;;;;;5.40;3.70;;;;;;;0.20;82.04;97468.42;104467;1259;101868;-70
2023/04/03 05:12:48;;;;;;;4.90;3.80;;;;;;;0.23;82.10;97470.77;104468;1264;100612;-70
2023/04/03 05:15:17;;;;;;;3.10;2.50;;;;;;;0.23;82.14;97476.98;104474;1264;95857;-72
2023/04/03 05:17:45;;;;;;;2.70;2.00;;;;;;;0.19;82.07;97482.82;104486;1260;96880;-73
2023/04/03 05:20:13;;;;;;;2.90;2.40;;;;;;;0.15;81.94;97476.28;104442;1263;101724;-71
2023/04/03 05:22:41;;;;;;;5.40;2.80;;;;;;;0.13;81.93;97482.65;104474;1264;102026;-70
2023/04/03 05:25:10;;;;;;;2.80;2.40;;;;;;;0.13;81.97;97486.23;104441;1259;100506;-70
2023/04/03 05:27:38;;;;;;;3.50;2.50;;;;;;;0.15;81.82;97487.29;104484;1260;95877;-73
2023/04/03 05:30:07;;;;;;;3.40;2.40;;;;;;;0.15;81.62;97489.19;104271;1261;96949;-70
2023/04/03 05:32:35;;;;;;;2.70;2.50;;;;;;;0.16;81.77;97491.40;104518;1263;99898;-70
2023/04/03 05:35:04;;;;;;;2.20;2.00;;;;;;;0.17;81.86;97489.35;104520;1264;101993;-70
2023/04/03 05:37:32;;;;;;;3.10;2.50;;;;;;;0.19;81.72;97487.95;104234;1269;99032;-70
2023/04/03 05:40:00;;;;;;;2.80;2.40;;;;;;;0.23;81.73;97490.77;104513;1264;97091;-71
2023/04/03 05:42:28;;;;;;;3.50;2.20;;;;;;;0.22;81.53;97483.58;104438;1265;95894;-70
2023/04/03 05:44:56;;;;;;;2.90;2.60;;;;;;;0.15;81.35;97485.80;104296;1282;101950;-72
2023/04/03 05:47:25;;;;;;;3.90;3.00;;;;;;;0.13;81.39;97487.10;104543;1276;101635;-70
2023/04/03 05:49:53;;;;;;;4.10;3.10;;;;;;;0.14;81.53;97490.02;104456;1264;100413;-69
2023/04/03 05:52:34;;;;;;;3.50;2.60;;;;;;;0.13;81.71;97490.80;104473;1264;95888;-70
2023/04/03 05:55:02;;;;;;;3.40;2.60;;;;;;;0.12;81.76;97492.70;104539;1264;95787;-70
2023/04/03 05:57:30;;;;;;;5.20;3.40;;;;;;;0.07;81.59;97495.09;104587;1265;99929;-70
2023/04/03 05:59:58;;;;;;;5.40;3.00;;;;;;;0.03;81.60;97498.17;104690;1264;101944;-71
2023/04/03 06:02:26;;;;;;;4.10;2.50;;;;;;;-0.01;81.59;97499.40;104449;1262;100210;-70
2023/04/03 06:04:55;;;;;;;2.70;2.30;;;;;;;-0.07;81.50;97506.35;104413;1272;96326;-70
2023/04/03 06:07:28;;;;;;;3.70;3.10;;;;;;;-0.14;81.48;97506.98;104631;1264;95885;-71
2023/04/03 06:09:57;;;;;;;3.90;2.90;;;;;;;-0.20;81.47;97515.36;104492;1272;101344;-70
2023/04/03 06:12:25;;;;;;;3.00;2.70;;;;;;;-0.21;81.58;97515.83;104642;1265;101750;-69
2023/04/03 06:14:53;;;;;;;3.30;2.50;;;;;;;-0.18;81.52;97513.23;104403;1261;100626;-72
2023/04/03 06:17:22;;;;;;;4.40;3.50;;;;;;;-0.19;81.31;97510.50;104417;1272;95859;-70
2023/04/03 06:19:50;;;;;;;3.60;3.10;;;;;;;-0.27;81.32;97520.04;104600;1265;95893;-70
2023/04/03 06:22:19;;;;;;;4.00;3.60;;;;;;;-0.29;81.36;97518.30;104445;1275;109955;-70
2023/04/03 06:24:47;;;;;;;6.80;3.30;;;;;;;-0.30;81.38;97521.27;104585;1267;101887;-70
2023/04/03 06:27:16;;;;;;;3.90;2.90;;;;;;;-0.33;81.32;97521.88;104641;1265;99042;-70
2023/04/03 06:29:45;;;;;;;4.20;3.30;;;;;;;-0.32;81.35;97524.56;104139;1259;96783;-70
2023/04/03 06:32:13;;;;;;;4.60;3.60;;;;;;;-0.30;81.23;97525.13;104942;1255;96113;-73
2023/04/03 06:34:41;;;;;;;5.20;4.00;;;;;;;-0.23;81.49;97532.42;104850;1253;100696;-71
2023/04/03 06:37:21;;;;;;;3.60;2.90;;;;;;;-0.20;81.44;97528.79;105025;1257;101992;-70
2023/04/03 06:39:49;;;;;;;3.60;2.80;;;;;;;-0.25;81.33;97534.27;105018;1256;100359;-72
2023/04/03 06:42:18;;;;;;;5.30;3.20;;;;;;;-0.27;81.42;97533.87;105002;1255;96831;-69
2023/04/03 06:44:46;;;;;;;5.00;2.90;;;;;;;-0.25;81.35;97535.06;104900;1260;96389;-69
2023/04/03 06:47:15;;;;;;;4.70;3.30;;;;;;;-0.22;81.21;97536.98;104975;1255;101616;-69
2023/04/03 06:49:44;;;;;;;10.60;6.90;;;;;;;-0.16;81.15;97540.29;104855;1259;101848;-70
2023/04/03 06:52:13;;;;;;;5.60;3.20;;;;;;;-0.09;81.13;97543.84;104850;1258;99137;-70
2023/04/03 06:54:41;;;;;;;4.00;3.40;;;;;;;-0.10;80.96;97543.38;104982;1257;95858;-70
2023/04/03 06:57:10;;;;;;;7.00;4.00;;;;;;;-0.09;80.94;97546.17;104971;1258;96014;-70
2023/04/03 06:59:38;;;;;;;7.20;4.60;;;;;;;-0.10;81.09;97549.22;105229;1256;99985;-70
2023/04/03 07:02:06;;;;;;;5.20;3.90;;;;;;;-0.08;81.34;97549.20;105188;1255;101598;-70
2023/04/03 07:04:34;;;;;;;5.60;3.40;;;;;;;-0.02;81.49;97552.38;105291;1256;100487;-70
2023/04/03 07:07:02;;;;;;;4.80;3.40;;;;;;;0.01;81.37;97554.04;105288;1253;96695;-70
2023/04/03 07:09:30;;;;;;;5.60;3.30;;;;;;;-0.02;81.20;97560.89;105191;1255;95839;-69
2023/04/03 07:11:58;;;;;;;7.70;4.00;;;;;;;0.02;81.32;97565.48;105323;1251;101157;-71
2023/04/03 07:14:27;;;;;;;3.70;3.20;;;;;;;0.08;81.31;97565.97;105037;1253;100449;-70
2023/04/03 07:16:55;;;;;;;5.20;3.30;;;;;;;0.10;81.22;97569.19;105220;1252;100205;-71
2023/04/03 07:19:24;;;;;;;3.10;2.80;;;;;;;0.12;81.11;97571.77;104778;1269;96888;-70
2023/04/03 07:21:52;;;;;;;3.40;3.10;;;;;;;0.20;80.97;97572.85;104960;1256;95804;-71
2023/04/03 07:24:20;;;;;;;13.80;4.20;;;;;;;0.25;80.87;97573.55;104937;1259;101180;-70
2023/04/03 07:33:37;;;;;;;4.30;3.20;;;;;;;0.33;80.09;97588.25;102236;1294;636008;-70
2023/04/03 07:36:06;;;;;;;5.10;3.30;;;;;;;0.27;80.03;97594.20;104330;1285;97333;-72
2023/04/03 07:38:36;;;;;;;5.70;3.90;;;;;;;0.28;79.97;97595.55;104316;1266;95873;-70
2023/04/03 07:41:05;;;;;;;4.20;3.20;;;;;;;0.27;79.77;97597.55;104305;1270;100186;-70
2023/04/03 07:43:34;;;;;;;4.40;3.40;;;;;;;0.27;79.75;97601.70;104006;1275;101979;-70
2023/04/03 07:46:02;;;;;;;5.80;3.50;;;;;;;0.30;79.89;97605.50;103985;1275;99637;-71
2023/04/03 07:48:30;;;;;;;4.00;3.50;;;;;;;0.33;79.76;97606.25;107841;1262;93741;-71
2023/04/03 07:51:03;;;;;;;6.40;3.90;;;;;;;0.36;79.75;97609.91;108104;1262;93535;-70
2023/04/03 07:53:32;;;;;;;6.40;3.90;;;;;;;0.26;79.46;97611.82;108087;1262;99501;-70
2023/04/03 07:56:02;;;;;;;4.50;3.90;;;;;;;0.18;79.36;97610.35;108112;1262;101516;-71
2023/04/03 07:58:31;;;;;;;6.00;4.00;;;;;;;0.17;79.47;97611.81;108057;1263;98932;-70
2023/04/03 08:00:59;;;;;;;4.50;3.80;;;;;;;0.25;79.59;97607.68;108039;1262;93679;-70
2023/04/03 08:03:27;;;;;;;4.70;3.80;;;;;;;0.30;79.32;97612.88;107944;1264;93689;-70
2023/04/03 08:05:56;;;;;;;4.20;3.40;;;;;;;0.29;79.33;97610.55;108102;1262;101325;-73
2023/04/03 08:08:24;;;;;;;5.10;3.50;;;;;;;0.37;79.42;97611.23;108089;1262;101209;-70
2023/04/03 08:10:54;;;;;;;7.90;3.80;;;;;;;0.46;79.24;97611.25;107953;1264;99711;-73
2023/04/03 08:13:23;;;;;;;5.70;3.70;;;;;;;0.50;79.08;97613.50;107840;1264;93684;-70
2023/04/03 08:15:51;;;;;;;6.70;4.50;;;;;;;0.51;78.91;97622.80;107757;1262;93668;-70
2023/04/03 08:18:24;;;;;;;6.70;3.90;;;;;;;0.45;78.77;97625.37;108549;1256;100767;-70
2023/04/03 08:20:52;;;;;;;;;;;;;;;0.38;78.62;97624.90;108338;1255;100538;-70
2023/04/03 08:23:21;;;;;;;8.50;6.20;;;;;;;0.36;78.69;97629.92;108553;1255;99673;-71
2023/04/03 08:25:49;;;;;;;8.40;4.40;;;;;;;0.31;78.61;97636.73;108344;1256;94745;-70
2023/04/03 08:28:17;;;;;;;5.40;3.70;;;;;;;0.33;78.57;97635.63;108383;1256;93647;-72
2023/04/03 08:30:45;;;;;;;10.40;3.90;;;;;;;0.39;78.44;97634.80;108512;1256;100989;-70
2023/04/03 08:33:15;;;;;;;8.20;4.50;;;;;;;0.38;78.03;97633.23;108535;1256;101291;-71
2023/04/03 08:35:43;;;;;;;9.80;6.80;;;;;;;0.33;77.91;97633.54;108354;1257;99969;-69
2023/04/03 08:38:11;;;;;;;12.70;7.20;;;;;;;0.37;78.07;97636.01;108348;1257;93780;-70
2023/04/03 08:40:41;;;;;;;13.30;7.40;;;;;;;0.46;78.28;97638.67;108368;1257;93794;-71
2023/04/03 08:43:35;;;;;;;11.80;7.10;;;;;;;0.54;78.25;97642.58;108363;1257;100592;-70
2023/04/03 08:46:07;;;;;;;9.80;5.50;;;;;;;0.63;78.43;97646.80;108371;1261;101012;-71
2023/04/03 08:48:40;;;;;;;11.90;5.10;;;;;;;0.69;78.25;97648.39;108348;1257;100392;-72
2023/04/03 08:51:21;;;;;;;9.70;6.00;;;;;;;0.66;77.94;97650.13;108342;1257;93895;-71
2023/04/03 08:54:16;;;;;;;10.90;5.40;;;;;;;0.72;78.24;97649.73;108359;1257;94812;-71
2023/04/03 08:56:45;;;;;;;11.20;5.70;;;;;;;0.78;78.33;97651.66;108357;1257;100939;-73
2023/04/03 08:59:18;;;;;;;82.80;43.90;;;;;;;0.89;78.38;97650.93;108359;1257;101713;-72
2023/04/03 09:01:47;;;;;;;59.10;33.10;;;;;;;1.02;78.24;97652.37;108235;1257;99853;-70
2023/04/03 09:04:18;;;;;;;11.20;5.60;;;;;;;1.11;77.76;97656.44;108292;1257;93725;-70
2023/04/03 09:06:56;;;;;;;9.20;5.30;;;;;;;1.01;77.33;97658.44;108415;1256;93594;-72
2023/04/03 09:09:40;;;;;;;11.20;6.90;;;;;;;0.95;77.43;97657.10;108301;1256;100555;-73
2023/04/03 09:12:36;;;;;;;11.80;6.70;;;;;;;0.95;77.40;97662.24;108448;1256;101572;-71
2023/04/03 09:15:17;;;;;;;21.40;11.20;;;;;;;0.92;77.36;97662.70;108449;1256;98962;-73
2023/04/03 09:17:45;;;;;;;15.60;9.60;;;;;;;0.96;77.39;97663.19;108445;1256;93728;-70
2023/04/03 09:20:26;;;;;;;7.90;5.20;;;;;;;1.00;77.32;97663.80;108426;1256;93913;-72
2023/04/03 09:22:54;;;;;;;11.10;7.10;;;;;;;0.98;77.08;97665.50;108436;1256;101086;-72
2023/04/03 09:25:34;;;;;;;8.40;5.60;;;;;;;1.00;76.93;97662.46;108471;1256;101346;-71
2023/04/03 09:28:04;;;;;;;8.00;4.40;;;;;;;0.97;76.67;97665.73;108425;1256;99971;-71
2023/04/03 09:30:32;;;;;;;8.20;4.00;;;;;;;0.76;76.43;97667.89;108457;1256;93958;-72
2023/04/03 09:33:01;;;;;;;11.60;5.90;;;;;;;0.68;76.65;97670.65;108436;1256;93525;-71
2023/04/03 09:35:37;;;;;;;11.40;6.50;;;;;;;0.72;76.86;97673.04;108454;1260;100793;-71
2023/04/03 09:38:24;;;;;;;11.80;6.50;;;;;;;0.79;77.10;97679.48;108352;1255;100617;-71
2023/04/03 09:41:32;;;;;;;13.60;7.10;;;;;;;0.84;77.12;97684.02;108475;1256;100164;-72
2023/04/03 09:44:01;;;;;;;19.00;10.60;;;;;;;0.90;77.05;97686.59;108096;1263;93727;-73
2023/04/03 09:46:32;;;;;;;14.80;8.90;;;;;;;0.91;76.85;97688.83;108112;1262;93951;-71
2023/04/03 09:49:03;;;;;;;15.10;8.20;;;;;;;0.92;76.70;97692.95;108134;1262;100539;-71
2023/04/03 09:51:32;;;;;;;6.40;4.60;;;;;;;0.99;76.74;97689.14;108079;1263;101190;-70
2023/04/03 09:54:01;;;;;;;8.10;4.40;;;;;;;1.04;76.53;97691.12;108075;1262;100100;-70
2023/04/03 09:56:31;;;;;;;7.20;4.00;;;;;;;1.03;76.31;97691.92;107951;1263;94630;-70
2023/04/03 09:58:59;;;;;;;8.40;4.00;;;;;;;0.90;76.25;97694.59;108112;1263;94206;-72
2023/04/03 10:01:33;;;;;;;15.40;6.70;;;;;;;0.86;76.58;97699.07;107871;1263;100751;-71
2023/04/03 10:04:16;;;;;;;10.40;5.30;;;;;;;0.86;76.73;97703.33;108255;1259;101184;-71
2023/04/03 10:06:50;;;;;;;12.40;5.90;;;;;;;0.89;76.99;97704.77;108098;1259;99923;-70
2023/04/03 10:09:19;;;;;;;11.50;5.90;;;;;;;0.95;77.06;97706.04;108215;1258;93802;-72
2023/04/03 10:12:05;;;;;;;13.40;7.80;;;;;;;0.93;77.04;97706.04;108272;1259;93688;-71
2023/04/03 10:14:40;;;;;;;14.70;8.60;;;;;;;0.91;77.16;97709.20;108433;1253;99475;-72
2023/04/03 10:17:43;;;;;;;21.60;13.10;;;;;;;0.91;77.33;97714.68;108524;1253;100588;-72
2023/04/03 10:20:27;;;;;;;19.90;12.80;;;;;;;1.03;77.41;97716.86;108756;1253;99956;-72
2023/04/03 10:23:23;;;;;;;7.30;3.60;;;;;;;1.05;77.14;97720.84;108525;1252;94166;-70
2023/04/03 10:26:23;;;;;;;5.40;3.30;;;;;;;0.89;76.59;97723.75;108581;1253;93843;-71
2023/04/03 10:29:11;;;;;;;5.10;3.20;;;;;;;0.79;76.51;97726.48;108259;1259;100781;-70
2023/04/03 10:31:50;;;;;;;3.60;2.60;;;;;;;0.79;76.55;97722.23;108284;1259;100489;-70
2023/04/03 10:34:34;;;;;;;3.30;2.40;;;;;;;0.85;76.34;97719.33;108242;1258;98961;-70
2023/04/03 10:37:11;;;;;;;3.40;2.20;;;;;;;0.93;76.36;97723.21;108250;1260;93763;-72
2023/04/03 10:39:42;;;;;;;4.20;2.80;;;;;;;0.98;76.28;97724.64;108214;1260;93670;-70
2023/04/03 10:42:26;;;;;;;4.50;2.40;;;;;;;0.98;76.22;97725.38;108238;1260;101271;-73
2023/04/03 10:45:16;;;;;;;4.80;2.90;;;;;;;0.99;75.84;97720.88;108261;1259;101399;-71
2023/04/03 10:48:14;;;;;;;6.20;2.90;;;;;;;0.89;75.33;97721.26;108234;1260;100042;-70
2023/04/03 10:51:26;;;;;;;3.70;2.70;;;;;;;0.71;75.51;97722.48;108224;1260;94103;-70
2023/04/03 10:54:07;;;;;;;4.30;2.90;;;;;;;0.64;76.04;97726.59;107898;1266;93896;-71
2023/04/03 10:56:42;;;;;;;6.20;3.60;;;;;;;0.69;76.19;97727.77;107909;1265;100793;-72
2023/04/03 10:59:44;;;;;;;5.50;3.10;;;;;;;0.70;75.98;97728.05;107778;1265;101172;-70
2023/04/03 11:02:26;;;;;;;4.80;2.50;;;;;;;0.80;76.20;97737.20;107875;1266;99629;-72
2023/04/03 11:05:18;;;;;;;5.30;2.70;;;;;;;0.81;75.95;97739.21;107702;1267;93865;-71
2023/04/03 11:07:53;;;;;;;7.10;2.70;;;;;;;0.67;75.36;97739.84;108303;1260;93818;-72
2023/04/03 11:10:51;;;;;;;4.70;2.90;;;;;;;0.54;75.53;97740.27;108353;1257;100701;-72
2023/04/03 11:14:06;;;;;;;6.30;2.90;;;;;;;0.58;76.09;97743.11;107964;1265;101516;-70
2023/04/03 11:16:42;;;;;;;4.30;2.80;;;;;;;0.53;75.89;97742.01;107111;1271;99723;-71
2023/04/03 11:19:21;;;;;;;10.50;3.00;;;;;;;0.44;75.78;97737.67;107390;1271;94059;-70
2023/04/03 11:21:58;;;;;;;5.90;2.90;;;;;;;0.44;75.99;97735.42;107440;1275;93782;-70
2023/04/03 11:24:32;;;;;;;8.10;4.40;;;;;;;0.53;76.38;97737.59;107119;1271;109482;-70
2023/04/03 11:27:03;;;;;;;6.70;4.40;;;;;;;0.60;76.50;97731.46;107440;1272;101126;-71
2023/04/03 11:29:36;;;;;;;6.40;3.40;;;;;;;0.62;76.45;97737.37;107107;1271;99915;-71
2023/04/03 11:32:22;;;;;;;6.30;4.10;;;;;;;0.67;76.68;97736.42;107885;1268;93725;-71
2023/04/03 11:34:56;;;;;;;10.00;5.30;;;;;;;0.71;76.75;97733.61;107820;1265;94022;-69
2023/04/03 11:37:40;;;;;;;7.80;4.00;;;;;;;0.76;76.84;97733.09;107909;1263;100770;-71
2023/04/03 11:40:22;;;;;;;5.00;3.20;;;;;;;0.79;76.31;97732.16;107952;1265;101217;-72
2023/04/03 11:42:56;;;;;;;6.80;3.60;;;;;;;0.67;76.03;97733.05;107882;1269;100026;-70
2023/04/03 11:45:24;;;;;;;5.40;3.10;;;;;;;0.66;76.13;97736.17;107795;1265;93742;-70
2023/04/03 11:47:58;;;;;;;4.90;3.50;;;;;;;0.64;75.89;97739.34;107925;1265;93932;-71
2023/04/03 11:50:35;;;;;;;8.50;3.70;;;;;;;0.54;75.88;97744.58;108177;1260;99862;-70
2023/04/03 11:53:27;;;;;;;7.00;4.70;;;;;;;0.61;76.28;97744.58;108391;1253;101195;-70
2023/04/03 11:55:57;;;;;;;11.00;3.30;;;;;;;0.69;75.95;97742.08;108363;1254;99465;-69
2023/04/03 11:58:28;;;;;;;4.90;3.20;;;;;;;0.73;75.60;97740.30;108619;1256;94308;-71